createdAt,value
2023-11-18T00:00:49.770Z,5.59
2023-11-18T00:03:51.412Z,5.67
2023-11-18T00:06:53.018Z,5.99
2023-11-18T00:09:54.501Z,5.88
2023-11-18T00:12:56.017Z,5.87
2023-11-18T00:15:57.529Z,5.87
2023-11-18T00:18:59.041Z,5.65
2023-11-18T00:22:00.547Z,5.72
2023-11-18T00:25:02.093Z,5.71
2023-11-18T00:28:03.623Z,5.75
2023-11-18T00:31:05.233Z,6.08
2023-11-18T00:34:06.799Z,5.45
2023-11-18T00:37:08.336Z,5.10
2023-11-18T00:40:09.847Z,5.15
2023-11-18T00:43:11.452Z,5.71
2023-11-18T00:46:12.964Z,5.60
2023-11-18T00:49:14.518Z,5.75
2023-11-18T00:52:16.104Z,5.66
2023-11-18T00:55:17.600Z,5.66
2023-11-18T00:58:19.128Z,5.87
2023-11-18T01:01:20.650Z,5.55
2023-11-18T01:04:22.142Z,5.29
2023-11-18T01:07:23.665Z,5.64
2023-11-18T01:10:25.195Z,5.36
2023-11-18T01:13:26.748Z,5.29
2023-11-18T01:16:28.324Z,5.31
2023-11-18T01:19:29.907Z,5.67
2023-11-18T01:22:31.439Z,5.46
2023-11-18T01:25:32.960Z,5.46
2023-11-18T01:28:34.524Z,5.73
2023-11-18T01:31:47.454Z,5.80
2023-11-18T01:34:53.820Z,5.40
2023-11-18T01:37:55.414Z,5.16
2023-11-18T01:40:57.004Z,5.26
2023-11-18T01:43:58.560Z,5.63
2023-11-18T01:47:00.158Z,5.40
2023-11-18T01:50:01.701Z,5.21
2023-11-18T01:53:03.290Z,5.22
2023-11-18T01:56:04.843Z,5.40
2023-11-18T01:59:06.435Z,5.59
2023-11-18T02:02:08.107Z,5.44
2023-11-18T02:05:09.806Z,5.14
2023-11-18T02:08:11.391Z,5.23
2023-11-18T02:11:12.914Z,5.38
2023-11-18T02:14:14.448Z,5.67
2023-11-18T02:17:15.927Z,5.74
2023-11-18T02:20:17.965Z,5.62
2023-11-18T02:23:19.645Z,5.46
2023-11-18T02:26:21.141Z,5.38
2023-11-18T02:29:22.735Z,5.48
2023-11-18T02:32:24.819Z,5.50
2023-11-18T02:35:26.569Z,5.25
2023-11-18T02:38:28.051Z,5.36
2023-11-18T02:41:29.524Z,5.36
2023-11-18T02:44:31.001Z,5.75
2023-11-18T02:47:32.577Z,5.87
2023-11-18T02:50:34.140Z,5.67
2023-11-18T02:53:35.673Z,5.38
2023-11-18T02:56:37.146Z,5.37
2023-11-18T02:59:38.641Z,5.47
2023-11-18T03:02:40.270Z,5.65
2023-11-18T03:05:41.933Z,5.81
2023-11-18T03:08:43.414Z,5.46
2023-11-18T03:11:44.977Z,5.46
2023-11-18T03:14:46.498Z,5.69
2023-11-18T03:17:48.029Z,5.61
2023-11-18T03:20:49.588Z,5.46
2023-11-18T03:23:51.098Z,5.41
2023-11-18T03:26:52.581Z,5.69
2023-11-18T03:29:54.140Z,5.50
2023-11-18T03:32:55.722Z,5.52
2023-11-18T03:35:57.249Z,5.75
2023-11-18T03:38:58.947Z,5.82
2023-11-18T03:42:00.509Z,5.83
2023-11-18T03:45:02.027Z,5.53
2023-11-18T03:48:03.512Z,5.67
2023-11-18T03:51:05.022Z,5.70
2023-11-18T03:54:06.556Z,5.99
2023-11-18T03:57:08.044Z,5.86
2023-11-18T04:00:09.553Z,5.44
2023-11-18T04:03:11.106Z,5.52
2023-11-18T04:06:12.636Z,5.67
2023-11-18T04:09:14.141Z,5.55
2023-11-18T04:12:15.678Z,5.90
2023-11-18T04:15:17.153Z,5.71
2023-11-18T04:18:18.730Z,6.02
2023-11-18T04:21:20.392Z,5.97
2023-11-18T04:24:21.873Z,5.91
2023-11-18T04:27:23.489Z,5.68
2023-11-18T04:30:25.003Z,5.65
2023-11-18T04:33:26.501Z,5.49
2023-11-18T04:36:27.976Z,5.39
2023-11-18T04:39:29.468Z,5.54
2023-11-18T04:42:30.998Z,5.81
2023-11-18T04:45:32.640Z,5.66
2023-11-18T04:48:34.278Z,5.43
2023-11-18T04:51:35.980Z,5.74
2023-11-18T04:54:37.494Z,5.78
2023-11-18T04:57:38.997Z,5.97
2023-11-18T05:00:40.561Z,5.73
2023-11-18T05:03:42.170Z,5.98
2023-11-18T05:06:43.759Z,5.89
2023-11-18T05:09:45.307Z,5.73
2023-11-18T05:12:46.815Z,5.83
2023-11-18T05:15:48.613Z,6.16
2023-11-18T05:18:50.286Z,6.19
2023-11-18T05:21:51.808Z,5.50
2023-11-18T05:24:53.472Z,5.55
2023-11-18T05:27:55.074Z,5.59
2023-11-18T05:30:56.594Z,5.00
2023-11-18T05:33:58.118Z,5.18
2023-11-18T05:36:59.639Z,5.25
2023-11-18T05:40:01.151Z,5.43
2023-11-18T05:43:02.655Z,5.67
2023-11-18T05:46:04.189Z,5.47
2023-11-18T05:49:05.730Z,5.63
2023-11-18T05:52:07.247Z,5.55
2023-11-18T05:55:08.736Z,5.51
2023-11-18T05:58:10.282Z,5.71
2023-11-18T06:01:11.764Z,5.72
2023-11-18T06:04:13.270Z,5.78
2023-11-18T06:07:14.820Z,5.71
2023-11-18T06:10:16.333Z,5.67
2023-11-18T06:13:17.857Z,5.67
2023-11-18T06:16:19.364Z,5.72
2023-11-18T06:19:20.842Z,5.75
2023-11-18T06:22:24.274Z,5.27
2023-11-18T06:25:27.389Z,5.17
2023-11-18T06:28:28.889Z,5.10
2023-11-18T06:31:30.464Z,5.62
2023-11-18T06:34:32.075Z,5.75
2023-11-18T06:37:33.560Z,5.72
2023-11-18T06:40:35.261Z,5.51
2023-11-18T06:43:36.920Z,5.96
2023-11-18T06:46:38.492Z,5.95
2023-11-18T06:49:40.120Z,5.76
2023-11-18T06:52:41.637Z,5.83
2023-11-18T06:55:43.170Z,5.98
2023-11-18T06:58:44.687Z,5.76
2023-11-18T07:01:46.873Z,5.88
2023-11-18T07:04:48.669Z,6.12
2023-11-18T07:07:50.233Z,6.14
2023-11-18T07:10:51.775Z,6.19
2023-11-18T07:13:53.302Z,6.24
2023-11-18T07:16:54.797Z,6.45
2023-11-18T07:19:56.359Z,6.21
2023-11-18T07:22:57.901Z,6.36
2023-11-18T07:25:59.443Z,5.99
2023-11-18T07:29:01.010Z,6.22
2023-11-18T07:32:02.550Z,6.52
2023-11-18T07:35:04.120Z,6.47
2023-11-18T07:38:05.682Z,6.51
2023-11-18T07:41:07.224Z,6.74
2023-11-18T07:44:08.854Z,6.79
2023-11-18T07:47:10.522Z,6.68
2023-11-18T07:50:12.118Z,6.85
2023-11-18T07:53:13.720Z,6.57
2023-11-18T07:56:15.289Z,6.74
2023-11-18T07:59:16.804Z,6.85
2023-11-18T08:02:18.382Z,6.68
2023-11-18T08:05:19.925Z,6.90
2023-11-18T08:08:21.486Z,6.99
2023-11-18T08:11:23.077Z,7.06
2023-11-18T08:14:24.650Z,7.02
2023-11-18T08:17:26.329Z,6.99
2023-11-18T08:20:27.923Z,7.06
2023-11-18T08:23:29.529Z,7.13
2023-11-18T08:26:31.171Z,7.25
2023-11-18T08:29:32.700Z,7.14
2023-11-18T08:32:34.285Z,6.99
2023-11-18T08:35:35.819Z,7.21
2023-11-18T08:38:37.369Z,7.33
2023-11-18T08:41:38.884Z,7.40
2023-11-18T08:44:40.441Z,7.40
2023-11-18T08:47:42.019Z,7.52
2023-11-18T08:50:43.575Z,7.45
2023-11-18T08:53:45.078Z,7.59
2023-11-18T08:56:46.591Z,7.58
2023-11-18T08:59:48.085Z,7.70
2023-11-18T09:02:54.235Z,7.70
2023-11-18T09:05:56.180Z,7.78
2023-11-18T09:08:57.660Z,7.78
2023-11-18T09:11:59.154Z,7.70
2023-11-18T09:15:00.638Z,7.69
2023-11-18T09:18:02.176Z,7.92
2023-11-18T09:21:03.731Z,7.84
2023-11-18T09:24:05.255Z,7.83
2023-11-18T09:27:06.772Z,7.90
2023-11-18T09:30:08.288Z,7.68
2023-11-18T09:33:09.799Z,7.73
2023-11-18T09:36:11.287Z,7.95
2023-11-18T09:39:12.832Z,7.83
2023-11-18T09:42:14.347Z,7.77
2023-11-18T09:45:15.875Z,7.95
2023-11-18T09:48:17.350Z,7.95
2023-11-18T09:51:18.888Z,8.00
2023-11-18T09:54:20.449Z,7.66
2023-11-18T09:57:21.985Z,7.77
2023-11-18T10:00:23.483Z,7.90
2023-11-18T10:03:25.084Z,8.05
2023-11-18T10:06:26.601Z,8.18
2023-11-18T10:09:28.128Z,8.14
2023-11-18T10:12:29.639Z,8.27
2023-11-18T10:15:31.151Z,7.98
2023-11-18T10:18:32.718Z,8.13
2023-11-18T10:21:34.249Z,8.22
2023-11-18T10:24:35.807Z,8.19
2023-11-18T10:27:37.385Z,8.28
2023-11-18T10:30:38.884Z,8.37
2023-11-18T10:33:40.436Z,8.40
2023-11-18T10:36:41.972Z,8.48
2023-11-18T10:39:43.528Z,8.31
2023-11-18T10:42:45.056Z,8.25
2023-11-18T10:45:46.579Z,8.34
2023-11-18T10:48:48.054Z,8.36
2023-11-18T10:51:49.618Z,8.40
2023-11-18T10:54:51.098Z,8.35
2023-11-18T10:57:52.582Z,8.19
2023-11-18T11:00:54.120Z,8.25
2023-11-18T11:03:55.599Z,8.26
2023-11-18T11:06:57.126Z,8.25
2023-11-18T11:09:58.594Z,8.27
2023-11-18T11:13:00.166Z,8.37
2023-11-18T11:16:01.645Z,8.26
2023-11-18T11:19:03.133Z,8.42
2023-11-18T11:22:04.638Z,8.15
2023-11-18T11:25:06.118Z,8.21
2023-11-18T11:28:07.625Z,8.36
2023-11-18T11:31:09.156Z,8.37
2023-11-18T11:34:10.667Z,8.21
2023-11-18T11:37:12.168Z,8.24
2023-11-18T11:40:13.720Z,8.34
2023-11-18T11:43:15.278Z,8.44
2023-11-18T11:46:16.837Z,8.30
2023-11-18T11:49:18.405Z,7.99
2023-11-18T11:52:19.902Z,8.20
2023-11-18T11:55:21.457Z,8.26
2023-11-18T11:58:22.969Z,8.26
2023-11-18T12:01:24.494Z,8.13
2023-11-18T12:04:26.069Z,8.24
2023-11-18T12:07:27.572Z,8.14
2023-11-18T12:10:29.095Z,8.26
2023-11-18T12:13:30.592Z,8.43
2023-11-18T12:16:32.120Z,8.33
2023-11-18T12:19:33.646Z,8.29
2023-11-18T12:22:35.136Z,8.34
2023-11-18T12:25:36.738Z,8.47
2023-11-18T12:28:38.265Z,8.41
2023-11-18T12:31:39.806Z,8.53
2023-11-18T12:34:41.393Z,8.52
2023-11-18T12:37:42.915Z,8.55
2023-11-18T12:40:44.435Z,8.53
2023-11-18T12:43:45.946Z,8.68
2023-11-18T12:46:47.463Z,8.63
2023-11-18T12:49:48.975Z,8.61
2023-11-18T12:52:50.584Z,8.59
2023-11-18T12:55:52.126Z,8.64
2023-11-18T12:58:53.722Z,8.62
2023-11-18T13:01:55.447Z,8.69
2023-11-18T13:04:57.111Z,8.65
2023-11-18T13:07:58.776Z,8.78
2023-11-18T13:11:00.316Z,8.78
2023-11-18T13:14:01.921Z,8.71
2023-11-18T13:17:03.513Z,8.67
2023-11-18T13:20:05.110Z,8.62
2023-11-18T13:23:06.674Z,8.65
2023-11-18T13:26:08.324Z,8.65
2023-11-18T13:29:09.854Z,8.66
2023-11-18T13:32:11.481Z,8.64
2023-11-18T13:35:13.047Z,8.75
2023-11-18T13:38:14.670Z,8.71
2023-11-18T13:41:16.251Z,8.73
2023-11-18T13:44:17.856Z,8.62
2023-11-18T13:47:19.469Z,8.37
2023-11-18T13:50:21.154Z,8.57
2023-11-18T13:53:22.686Z,8.63
2023-11-18T13:56:24.231Z,8.54
2023-11-18T13:59:25.758Z,8.59
2023-11-18T14:02:27.414Z,8.49
2023-11-18T14:05:29.140Z,8.66
2023-11-18T14:08:30.866Z,8.64
2023-11-18T14:11:32.454Z,8.66
2023-11-18T14:14:34.012Z,8.65
2023-11-18T14:17:35.725Z,8.73
2023-11-18T14:20:37.293Z,8.61
2023-11-18T14:23:38.913Z,8.66
2023-11-18T14:26:40.574Z,8.71
2023-11-18T14:29:42.144Z,8.79
2023-11-18T14:32:43.633Z,8.64
2023-11-18T14:35:45.148Z,8.72
2023-11-18T14:38:46.739Z,8.65
2023-11-18T14:41:48.329Z,8.57
2023-11-18T14:44:49.805Z,8.72
2023-11-18T14:47:51.446Z,8.69
2023-11-18T14:50:53.028Z,8.62
2023-11-18T14:53:54.578Z,8.60
2023-11-18T14:56:56.126Z,8.59
2023-11-18T14:59:57.602Z,8.58
2023-11-18T15:03:00.545Z,8.66
2023-11-18T15:06:02.246Z,8.68
2023-11-18T15:09:03.774Z,8.63
2023-11-18T15:12:05.300Z,8.64
2023-11-18T15:15:06.815Z,8.71
2023-11-18T15:18:08.601Z,8.72
2023-11-18T15:21:10.177Z,8.61
2023-11-18T15:24:11.696Z,8.71
2023-11-18T15:27:13.210Z,8.77
2023-11-18T15:30:14.729Z,8.63
2023-11-18T15:33:16.489Z,8.62
2023-11-18T15:36:18.175Z,8.51
2023-11-18T15:39:19.688Z,8.60
2023-11-18T15:42:21.179Z,8.61
2023-11-18T15:45:22.666Z,8.65
2023-11-18T15:48:24.180Z,8.61
2023-11-18T15:51:25.658Z,8.63
2023-11-18T15:54:27.156Z,8.65
2023-11-18T15:57:28.814Z,8.60
2023-11-18T16:00:30.358Z,8.42
2023-11-18T16:03:31.959Z,8.54
2023-11-18T16:06:33.504Z,8.66
2023-11-18T16:09:35.166Z,8.55
2023-11-18T16:12:36.723Z,8.49
2023-11-18T16:15:38.209Z,8.37
2023-11-18T16:18:39.726Z,8.54
2023-11-18T16:21:41.268Z,8.37
2023-11-18T16:24:42.753Z,8.41
2023-11-18T16:27:44.284Z,8.54
2023-11-18T16:30:45.777Z,8.54
2023-11-18T16:33:47.380Z,8.55
2023-11-18T16:36:48.882Z,8.44
2023-11-18T16:39:52.342Z,8.37
2023-11-18T16:42:54.048Z,8.29
2023-11-18T16:45:55.583Z,8.32
2023-11-18T16:48:57.083Z,8.44
2023-11-18T16:52:01.414Z,8.58
2023-11-18T16:55:04.561Z,8.56
2023-11-18T16:58:06.086Z,8.55
2023-11-18T17:01:07.651Z,8.57
2023-11-18T17:04:09.344Z,8.60
2023-11-18T17:07:11.040Z,8.56
2023-11-18T17:10:13.094Z,8.48
2023-11-18T17:13:14.834Z,8.55
2023-11-18T17:16:17.749Z,8.66
2023-11-18T17:19:19.390Z,8.52
2023-11-18T17:22:20.943Z,8.73
2023-11-18T17:25:22.536Z,8.67
2023-11-18T17:28:24.088Z,8.66
2023-11-18T17:31:25.653Z,8.73
2023-11-18T17:34:27.117Z,8.57
2023-11-18T17:37:28.628Z,8.69
2023-11-18T17:40:30.134Z,8.72
2023-11-18T17:43:31.707Z,8.68
2023-11-18T17:46:33.243Z,8.63
2023-11-18T17:49:34.771Z,8.50
2023-11-18T17:52:36.287Z,8.61
2023-11-18T17:55:37.862Z,8.58
2023-11-18T17:58:39.385Z,8.61
2023-11-18T18:01:40.970Z,8.64
2023-11-18T18:04:42.467Z,8.66
2023-11-18T18:07:43.993Z,8.68
2023-11-18T18:10:45.513Z,8.64
2023-11-18T18:13:47.039Z,8.60
2023-11-18T18:16:48.538Z,8.58
2023-11-18T18:19:50.109Z,8.63
2023-11-18T18:22:51.619Z,8.74
2023-11-18T18:25:53.139Z,8.74
2023-11-18T18:28:56.779Z,8.63
2023-11-18T18:31:59.817Z,8.74
2023-11-18T18:35:01.432Z,8.69
2023-11-18T18:38:03.149Z,8.80
2023-11-18T18:41:04.834Z,8.78
2023-11-18T18:44:06.440Z,8.83
2023-11-18T18:47:08.010Z,8.88
2023-11-18T18:50:09.645Z,8.69
2023-11-18T18:53:11.207Z,8.71
2023-11-18T18:56:12.786Z,8.88
2023-11-18T18:59:14.311Z,8.79
2023-11-18T19:02:16.092Z,8.65
2023-11-18T19:05:17.609Z,8.43
2023-11-18T19:08:19.176Z,8.62
2023-11-18T19:11:20.732Z,8.70
2023-11-18T19:14:22.364Z,8.59
2023-11-18T19:17:24.041Z,8.51
2023-11-18T19:20:25.629Z,8.67
2023-11-18T19:23:27.234Z,8.77
2023-11-18T19:26:28.838Z,8.81
2023-11-18T19:29:30.416Z,8.78
2023-11-18T19:32:32.024Z,8.69
2023-11-18T19:35:33.634Z,8.80
2023-11-18T19:38:35.218Z,8.62
2023-11-18T19:41:36.802Z,8.81
2023-11-18T19:44:38.920Z,8.85
2023-11-18T19:47:40.681Z,8.91
2023-11-18T19:50:42.288Z,8.92
2023-11-18T19:53:43.888Z,8.87
2023-11-18T19:56:45.445Z,9.00
2023-11-18T19:59:46.964Z,8.81
2023-11-18T20:02:48.746Z,8.96
2023-11-18T20:05:50.351Z,9.06
2023-11-18T20:08:51.843Z,8.76
2023-11-18T20:11:53.394Z,8.86
2023-11-18T20:14:54.935Z,8.99
2023-11-18T20:17:56.609Z,9.07
2023-11-18T20:20:58.215Z,9.08
2023-11-18T20:23:59.710Z,9.15
2023-11-18T20:27:01.197Z,9.08
2023-11-18T20:30:02.757Z,8.85
2023-11-18T20:33:04.304Z,8.70
2023-11-18T20:36:05.815Z,8.65
2023-11-18T20:39:07.378Z,8.69
2023-11-18T20:42:08.898Z,8.78
2023-11-18T20:45:10.400Z,8.77
2023-11-18T20:48:11.934Z,8.82
2023-11-18T20:51:13.433Z,8.81
2023-11-18T20:54:14.971Z,8.90
2023-11-18T20:57:16.477Z,8.83
2023-11-18T21:00:18.024Z,8.82
2023-11-18T21:03:19.661Z,8.92
2023-11-18T21:06:22.259Z,8.97
2023-11-18T21:09:24.264Z,8.98
2023-11-18T21:12:25.801Z,9.03
2023-11-18T21:15:27.273Z,9.06
2023-11-18T21:18:28.793Z,9.15
2023-11-18T21:21:30.296Z,9.25
2023-11-18T21:24:31.766Z,9.10
2023-11-18T21:27:33.272Z,9.29
2023-11-18T21:30:34.919Z,9.37
2023-11-18T21:33:36.437Z,9.22
2023-11-18T21:36:37.925Z,9.02
2023-11-18T21:39:39.394Z,9.08
2023-11-18T21:42:40.916Z,9.26
2023-11-18T21:45:42.399Z,9.31
2023-11-18T21:48:43.924Z,9.34
2023-11-18T21:51:45.413Z,9.44
2023-11-18T21:54:46.906Z,9.46
2023-11-18T21:57:48.411Z,9.41
2023-11-18T22:00:49.885Z,9.46
2023-11-18T22:03:51.503Z,9.46
2023-11-18T22:06:55.207Z,9.47
2023-11-18T22:09:56.916Z,9.43
2023-11-18T22:12:58.458Z,9.40
2023-11-18T22:16:00.069Z,9.47
2023-11-18T22:19:01.616Z,9.54
2023-11-18T22:22:03.131Z,9.63
2023-11-18T22:25:04.608Z,9.66
2023-11-18T22:28:06.094Z,9.47
2023-11-18T22:31:07.630Z,9.52
2023-11-18T22:34:09.196Z,9.55
2023-11-18T22:37:10.778Z,9.55
2023-11-18T22:40:12.263Z,9.43
2023-11-18T22:43:13.773Z,9.53
2023-11-18T22:46:15.272Z,9.50
2023-11-18T22:49:16.783Z,9.61
2023-11-18T22:52:18.375Z,9.65
2023-11-18T22:55:19.938Z,9.68
2023-11-18T22:58:21.473Z,9.76
2023-11-18T23:01:22.990Z,9.75
2023-11-18T23:04:24.509Z,9.80
2023-11-18T23:07:26.156Z,9.80
2023-11-18T23:10:27.635Z,9.85
2023-11-18T23:13:29.169Z,9.68
2023-11-18T23:16:30.711Z,9.82
2023-11-18T23:19:36.285Z,9.88
2023-11-18T23:22:39.950Z,9.85
2023-11-18T23:25:41.483Z,9.87
2023-11-18T23:28:42.994Z,9.93
2023-11-18T23:31:44.592Z,9.90
2023-11-18T23:34:46.093Z,9.75
2023-11-18T23:37:47.645Z,9.85
2023-11-18T23:40:49.191Z,9.95
2023-11-18T23:43:50.723Z,9.96
2023-11-18T23:46:52.384Z,9.99
2023-11-18T23:52:58.351Z,9.99
2023-11-18T23:55:59.852Z,9.95
2023-11-18T23:59:04.472Z,9.99
